Falls City, NE (68355)

1:59 PM CST on February 14, 2016 (GMT -0600)
Brenner | | Change Station
CLOSE
Current Station
Airport
Location: Falls City,
Elevation: 984 ft
Nearby Weather Stations

Elev 984 ft 40.08 °N, 95.59 °W | Updated 6 minutes ago

Overcast
Overcast
47 °F
Feels Like 47 °F
N
9
Wind Variable Wind from West

Today
High -- | Low -- °F
--% Chance of Precip.
Yesterday
High -- | Low -- °F
Precip. -- in
Pressure 29.85 in
Visibility 10.0 miles
Clouds Overcast 3900 ft
Dew Point 29 °F
Humidity 50%
Rainfall 0.00 in
Snow Depth Not available.
7:17 AM 5:56 PM
Waxing Crescent, 44% visible
METAR KFNB 141953Z AUTO 28008KT 10SM OVC039 08/M02 A2983 RMK AO2 SLP108 T00831017
Pressure 29.85 in
Visibility 10.0 miles
Clouds Overcast 3900 ft
Dew Point 29 °F
Humidity 50%
Rainfall 0.00 in
Snow Depth Not available.
7:17 AM 5:56 PM
Waxing Crescent, 44% visible
METAR KFNB 141953Z AUTO 28008KT 10SM OVC039 08/M02 A2983 RMK AO2 SLP108 T00831017

10-Day Weather Forecast

Almanac

Astronomy

Feb. 14, 2016 Rise Set
Actual Time
Civil Twilight
Nautical Twilight
Astronomical Twilight
Moon
Length of Visible Light
Length of Day
Tomorrow will be .
, % of the Moon is Illuminated

Today's Extremes

State Highs State Lows

Community

WunderPhotos

Upload Photos

1,892,879 photos uploaded!

WunderBlog® & News

Nearby

Air Quality

  Air Quality AQ Index Pollutant
Not available.

Snow Depth

Station Depth Elevation

Earthquake Activity

City Distance Mag. Time & Date
Minimum magnitude displayed is 2.5.

Coastal Water Temperatures

Place Temperature

Stations

Nearby Weather Stations

Station Location Temp. Windchill Dew Point Humidity Wind Precip. Elev Updated Type
                   

Watches & Warnings

There are currently no watches in effect.